< < Back
Terminal Aerodrome Forecast


Current Version              Previous Versions:   1  2  3  4  5  6  7  8  9  

Terminal Aerodrome Forecast

080
FTUS44 KBMX 050520
TAFTCL
TAF
KTCL 050520Z 0506/0606 VRB03KT P6SM FEW080 SCT250
     FM051600 21006KT P6SM SCT060 BKN090
     FM060000 VRB03KT P6SM BKN100=

Latest METAR

196
SAUS70 KWBC 050800 RRK
MTRTCL
METAR KTCL 050753Z AUTO 00000KT 9SM CLR 23/21 A3000 RMK AO2 SLP156
T02330206


USA.gov is the U.S. government's official web portal to all federal, state and local government web resources and services.